Time,TemperatureF,DewpointF,PressureIn,WindDirection,WindDirectionDegrees,WindSpeedMPH,WindSpeedGustMPH,Humidity,HourlyPrecipIn,Conditions,Clouds,dailyrainin,SoftwareType,DateUTC
2013-07-22 00:00:00,66.3,64.5,29.91,N/A,-737280,0.0,-999.0,94,0.02,,,0.24,Wunderground v.1.15,2013-07-22 04:00:00,
2013-07-22 00:05:00,66.3,64.5,29.91,North,32767,-999.0,0.0,94,0.00,,,0.01,Wunderground v.1.15,2013-07-22 04:05:00,
2013-07-22 00:10:00,66.3,64.5,29.90,North,32767,-999.0,0.0,94,0.00,,,0.01,Wunderground v.1.15,2013-07-22 04:10:00,
2013-07-22 00:15:00,66.3,64.8,29.89,N/A,-737280,0.0,-999.0,95,0.02,,,0.24,Wunderground v.1.15,2013-07-22 04:15:00,
2013-07-22 00:20:00,66.3,64.8,29.89,North,32767,-999.0,0.0,95,0.00,,,0.01,Wunderground v.1.15,2013-07-22 04:20:00,
2013-07-22 00:25:00,66.3,64.8,29.89,North,32767,-999.0,0.0,95,0.00,,,0.01,Wunderground v.1.15,2013-07-22 04:25:00,
2013-07-22 00:30:00,66.2,64.7,29.89,North,32767,-999.0,0.0,95,0.00,,,0.02,Wunderground v.1.15,2013-07-22 04:30:00,
2013-07-22 00:35:00,66.2,64.7,29.89,North,32767,-999.0,0.0,95,0.00,,,0.02,Wunderground v.1.15,2013-07-22 04:35:00,
2013-07-22 00:40:00,66.3,64.8,29.89,North,32767,-999.0,0.0,95,0.00,,,0.02,Wunderground v.1.15,2013-07-22 04:40:00,
2013-07-22 00:45:00,66.2,64.7,29.88,N/A,-737280,0.0,-999.0,95,0.02,,,0.24,Wunderground v.1.15,2013-07-22 04:45:00,
2013-07-22 00:50:00,66.2,64.7,29.87,North,32767,-999.0,0.0,95,0.00,,,0.02,Wunderground v.1.15,2013-07-22 04:50:00,
2013-07-22 00:55:00,66.2,64.7,29.87,North,32767,-999.0,0.0,95,0.00,,,0.02,Wunderground v.1.15,2013-07-22 04:55:00,
2013-07-22 01:00:00,66.2,64.7,29.87,N/A,-737280,0.0,-999.0,95,0.01,,,0.24,Wunderground v.1.15,2013-07-22 05:00:00,
2013-07-22 01:05:00,66.2,64.7,29.88,North,32767,-999.0,0.0,95,0.00,,,0.03,Wunderground v.1.15,2013-07-22 05:05:00,
2013-07-22 01:10:00,66.2,64.7,29.87,N/A,-737280,0.0,-999.0,95,0.02,,,0.24,Wunderground v.1.15,2013-07-22 05:10:00,
2013-07-22 01:15:00,66.2,64.4,29.87,North,32767,-999.0,0.0,94,0.00,,,0.03,Wunderground v.1.15,2013-07-22 05:15:00,
2013-07-22 01:20:00,66.2,64.4,29.86,N/A,-737280,0.0,-999.0,94,0.02,,,0.24,Wunderground v.1.15,2013-07-22 05:20:00,
2013-07-22 01:25:00,66.2,64.4,29.86,North,32767,-999.0,0.0,94,0.00,,,0.03,Wunderground v.1.15,2013-07-22 05:25:00,
2013-07-22 01:30:00,66.2,64.4,29.86,N/A,-737280,0.0,-999.0,94,0.02,,,0.24,Wunderground v.1.15,2013-07-22 05:30:00,
2013-07-22 01:35:00,66.1,64.3,29.86,North,32767,-999.0,0.0,94,0.00,,,0.04,Wunderground v.1.15,2013-07-22 05:35:00,
2013-07-22 01:40:00,66.2,64.1,29.85,North,32767,-999.0,0.0,93,0.00,,,0.04,Wunderground v.1.15,2013-07-22 05:40:00,
2013-07-22 01:45:00,66.1,64.0,29.86,North,32767,-999.0,0.0,93,0.00,,,0.04,Wunderground v.1.15,2013-07-22 05:45:00,
2013-07-22 01:50:00,66.1,64.0,29.86,N/A,-737280,0.0,-999.0,93,0.02,,,0.24,Wunderground v.1.15,2013-07-22 05:50:00,
2013-07-22 01:55:00,66.1,63.7,29.86,North,32767,-999.0,0.0,92,0.00,,,0.04,Wunderground v.1.15,2013-07-22 05:55:00,
2013-07-22 02:00:00,66.1,63.7,29.86,N/A,-737280,0.0,-999.0,92,0.02,,,0.24,Wunderground v.1.15,2013-07-22 06:00:00,
2013-07-22 02:05:00,65.9,63.5,29.86,North,32767,-999.0,0.0,92,0.00,,,0.04,Wunderground v.1.15,2013-07-22 06:05:00,
2013-07-22 02:10:00,65.8,63.7,29.86,N/A,-737280,0.0,-999.0,93,0.02,,,0.24,Wunderground v.1.15,2013-07-22 06:10:00,
2013-07-22 02:15:00,65.8,63.4,29.86,North,32767,-999.0,0.0,92,0.00,,,0.05,Wunderground v.1.15,2013-07-22 06:15:00,
2013-07-22 02:20:00,65.7,63.6,29.86,North,32767,-999.0,0.0,93,0.00,,,0.05,Wunderground v.1.15,2013-07-22 06:20:00,
2013-07-22 02:25:00,65.7,63.6,29.86,N/A,-737280,0.0,-999.0,93,0.02,,,0.24,Wunderground v.1.15,2013-07-22 06:25:00,
2013-07-22 02:30:00,65.8,63.7,29.86,North,32767,-999.0,0.0,93,0.00,,,0.05,Wunderground v.1.15,2013-07-22 06:30:00,
2013-07-22 02:35:00,65.7,63.6,29.85,North,32767,-999.0,0.0,93,0.00,,,0.06,Wunderground v.1.15,2013-07-22 06:35:00,
2013-07-22 02:40:00,65.6,63.5,29.85,N/A,-737280,0.0,-999.0,93,0.02,,,0.24,Wunderground v.1.15,2013-07-22 06:40:00,
2013-07-22 02:45:00,65.5,63.4,29.85,North,32767,-999.0,0.0,93,0.00,,,0.06,Wunderground v.1.15,2013-07-22 06:45:00,
2013-07-22 02:50:00,65.5,63.4,29.85,N/A,-737280,0.0,-999.0,93,0.02,,,0.24,Wunderground v.1.15,2013-07-22 06:50:00,
2013-07-22 02:55:00,65.5,63.4,29.85,North,32767,-999.0,0.0,93,0.00,,,0.06,Wunderground v.1.15,2013-07-22 06:55:00,
2013-07-22 03:00:00,65.6,63.5,29.85,N/A,-737280,0.0,-999.0,93,0.02,,,0.24,Wunderground v.1.15,2013-07-22 07:00:00,
2013-07-22 03:05:00,65.7,63.6,29.85,North,32767,-999.0,0.0,93,0.00,,,0.07,Wunderground v.1.15,2013-07-22 07:05:00,
2013-07-22 03:10:00,65.7,63.6,29.85,N/A,-737280,0.0,-999.0,93,0.02,,,0.24,Wunderground v.1.15,2013-07-22 07:10:00,
2013-07-22 03:15:00,65.8,63.7,29.85,North,32767,-999.0,0.0,93,0.00,,,0.07,Wunderground v.1.15,2013-07-22 07:15:00,
2013-07-22 03:20:00,65.8,63.7,29.85,North,32767,-999.0,0.0,93,0.04,,,0.08,Wunderground v.1.15,2013-07-22 07:20:00,
2013-07-22 03:25:00,65.8,63.7,29.85,North,32767,-999.0,0.0,93,0.04,,,0.08,Wunderground v.1.15,2013-07-22 07:25:00,
2013-07-22 03:30:00,65.8,63.4,29.84,N/A,-737280,0.0,-999.0,92,0.03,,,0.24,Wunderground v.1.15,2013-07-22 07:30:00,
2013-07-22 03:35:00,65.7,63.3,29.84,North,32767,-999.0,0.0,92,0.00,,,0.08,Wunderground v.1.15,2013-07-22 07:35:00,
2013-07-22 03:40:00,65.7,63.3,29.84,N/A,-737280,0.0,-999.0,92,0.03,,,0.24,Wunderground v.1.15,2013-07-22 07:40:00,
2013-07-22 03:45:00,65.6,63.2,29.84,North,32767,-999.0,0.0,92,0.00,,,0.09,Wunderground v.1.15,2013-07-22 07:45:00,
2013-07-22 03:50:00,65.6,63.2,29.84,N/A,-737280,0.0,-999.0,92,0.03,,,0.24,Wunderground v.1.15,2013-07-22 07:50:00,
2013-07-22 03:55:00,65.6,63.2,29.84,North,32767,-999.0,0.0,92,0.04,,,0.10,Wunderground v.1.15,2013-07-22 07:55:00,
2013-07-22 04:00:00,65.6,63.2,29.83,N/A,-737280,0.0,-999.0,92,0.04,,,0.24,Wunderground v.1.15,2013-07-22 08:00:00,
2013-07-22 04:05:00,65.6,63.2,29.83,North,32767,-999.0,0.0,92,0.04,,,0.10,Wunderground v.1.15,2013-07-22 08:05:00,
2013-07-22 04:10:00,65.6,63.2,29.83,North,32767,-999.0,0.0,92,0.04,,,0.10,Wunderground v.1.15,2013-07-22 08:10:00,
2013-07-22 04:15:00,65.6,63.2,29.83,N/A,-737280,0.0,-999.0,92,0.04,,,0.24,Wunderground v.1.15,2013-07-22 08:15:00,
2013-07-22 04:20:00,65.6,63.2,29.83,North,32767,-999.0,0.0,92,0.00,,,0.11,Wunderground v.1.15,2013-07-22 08:20:00,
2013-07-22 04:25:00,65.4,63.0,29.83,North,32767,-999.0,0.0,92,0.00,,,0.11,Wunderground v.1.15,2013-07-22 08:25:00,
2013-07-22 04:30:00,65.4,63.0,29.83,N/A,-737280,0.0,-999.0,92,0.04,,,0.24,Wunderground v.1.15,2013-07-22 08:30:00,
2013-07-22 04:35:00,65.5,63.1,29.83,North,32767,-999.0,0.0,92,0.04,,,0.12,Wunderground v.1.15,2013-07-22 08:35:00,
2013-07-22 04:40:00,65.5,63.4,29.83,N/A,-737280,0.0,-999.0,93,0.03,,,0.24,Wunderground v.1.15,2013-07-22 08:40:00,
2013-07-22 04:45:00,65.4,63.3,29.83,North,32767,-999.0,0.0,93,0.04,,,0.12,Wunderground v.1.15,2013-07-22 08:45:00,
2013-07-22 04:50:00,65.4,63.3,29.83,North,32767,-999.0,0.0,93,0.00,,,0.12,Wunderground v.1.15,2013-07-22 08:50:00,
2013-07-22 04:55:00,65.5,63.4,29.82,North,32767,-999.0,0.0,93,0.00,,,0.13,Wunderground v.1.15,2013-07-22 08:55:00,
2013-07-22 05:00:00,65.5,63.4,29.82,N/A,-737280,0.0,-999.0,93,0.03,,,0.24,Wunderground v.1.15,2013-07-22 09:00:00,
2013-07-22 05:05:00,65.4,63.3,29.82,North,32767,-999.0,0.0,93,0.00,,,0.13,Wunderground v.1.15,2013-07-22 09:05:00,
2013-07-22 05:10:00,65.4,63.6,29.82,N/A,-737280,0.0,-999.0,94,0.04,,,0.24,Wunderground v.1.15,2013-07-22 09:10:00,
2013-07-22 05:15:00,65.4,63.6,29.82,North,32767,-999.0,0.0,94,0.04,,,0.14,Wunderground v.1.15,2013-07-22 09:15:00,
2013-07-22 05:20:00,65.4,63.6,29.82,N/A,-737280,0.0,-999.0,94,0.03,,,0.24,Wunderground v.1.15,2013-07-22 09:20:00,
2013-07-22 05:25:00,65.4,63.6,29.82,North,32767,-999.0,0.0,94,0.00,,,0.14,Wunderground v.1.15,2013-07-22 09:25:00,
2013-07-22 05:30:00,65.5,63.7,29.82,North,32767,-999.0,0.0,94,0.00,,,0.14,Wunderground v.1.15,2013-07-22 09:30:00,
2013-07-22 05:35:00,65.4,63.6,29.82,N/A,-737280,0.0,-999.0,94,0.03,,,0.24,Wunderground v.1.15,2013-07-22 09:35:00,
2013-07-22 05:40:00,65.4,63.6,29.82,North,32767,-999.0,0.0,94,0.00,,,0.15,Wunderground v.1.15,2013-07-22 09:40:00,
2013-07-22 05:45:00,65.4,63.6,29.82,North,32767,-999.0,0.0,94,0.00,,,0.15,Wunderground v.1.15,2013-07-22 09:45:00,
2013-07-22 05:50:00,65.4,63.6,29.82,North,32767,-999.0,0.0,94,0.00,,,0.16,Wunderground v.1.15,2013-07-22 09:50:00,
2013-07-22 05:55:00,65.3,63.5,29.82,North,32767,-999.0,0.0,94,0.00,,,0.16,Wunderground v.1.15,2013-07-22 09:55:00,
2013-07-22 06:00:00,65.3,63.5,29.83,N/A,-737280,0.0,-999.0,94,0.03,,,0.24,Wunderground v.1.15,2013-07-22 10:00:00,
2013-07-22 06:05:00,65.3,63.5,29.83,North,32767,-999.0,0.0,94,0.00,,,0.16,Wunderground v.1.15,2013-07-22 10:05:00,
2013-07-22 06:10:00,65.2,63.4,29.83,N/A,-737280,0.0,-999.0,94,0.02,,,0.24,Wunderground v.1.15,2013-07-22 10:10:00,
2013-07-22 06:15:00,65.3,63.5,29.83,North,32767,-999.0,0.0,94,0.00,,,0.16,Wunderground v.1.15,2013-07-22 10:15:00,
2013-07-22 06:20:00,65.3,63.5,29.83,N/A,-737280,0.0,-999.0,94,0.03,,,0.24,Wunderground v.1.15,2013-07-22 10:20:00,
2013-07-22 06:25:00,65.3,63.5,29.83,North,32767,-999.0,0.0,94,0.00,,,0.17,Wunderground v.1.15,2013-07-22 10:25:00,
2013-07-22 06:30:00,65.3,63.5,29.83,N/A,-737280,0.0,-999.0,94,0.02,,,0.24,Wunderground v.1.15,2013-07-22 10:30:00,
2013-07-22 06:35:00,65.3,63.5,29.83,North,32767,-999.0,0.0,94,0.00,,,0.17,Wunderground v.1.15,2013-07-22 10:35:00,
2013-07-22 06:40:00,65.3,63.5,29.83,N/A,-737280,0.0,-999.0,94,0.02,,,0.24,Wunderground v.1.15,2013-07-22 10:40:00,
2013-07-22 06:45:00,65.3,63.5,29.83,North,32767,-999.0,0.0,94,0.00,,,0.18,Wunderground v.1.15,2013-07-22 10:45:00,
2013-07-22 06:50:00,65.4,63.6,29.83,North,32767,-999.0,0.0,94,0.43,,,0.24,Wunderground v.1.15,2013-07-22 10:50:00,
2013-07-22 06:55:00,65.5,63.7,29.83,North,32767,-999.0,0.0,94,0.10,,,0.24,Wunderground v.1.15,2013-07-22 10:55:00,
2013-07-22 07:00:00,65.5,63.7,29.83,N/A,-737280,0.0,-999.0,94,0.08,,,0.24,Wunderground v.1.15,2013-07-22 11:00:00,
2013-07-22 07:05:00,65.7,63.9,29.83,North,32767,-999.0,0.0,94,0.04,,,0.24,Wunderground v.1.15,2013-07-22 11:05:00,
2013-07-22 07:10:00,65.8,64.0,29.83,N/A,-737280,0.0,-999.0,94,0.08,,,0.24,Wunderground v.1.15,2013-07-22 11:10:00,
2013-07-22 07:15:00,65.8,64.0,29.83,North,32767,-999.0,0.0,94,0.00,,,0.24,Wunderground v.1.15,2013-07-22 11:15:00,
2013-07-22 07:20:00,65.9,64.1,29.83,N/A,-737280,0.0,-999.0,94,0.07,,,0.24,Wunderground v.1.15,2013-07-22 11:20:00,
2013-07-22 07:25:00,65.9,64.1,29.83,North,32767,-999.0,0.0,94,0.00,,,0.24,Wunderground v.1.15,2013-07-22 11:25:00,
2013-07-22 07:30:00,66.0,64.2,29.82,North,32767,-999.0,0.0,94,0.00,,,0.24,Wunderground v.1.15,2013-07-22 11:30:00,
2013-07-22 07:35:00,66.1,64.3,29.82,North,32767,-999.0,0.0,94,0.00,,,0.24,Wunderground v.1.15,2013-07-22 11:35:00,
2013-07-22 07:40:00,66.3,64.5,29.82,N/A,-737280,0.0,-999.0,94,0.07,,,0.24,Wunderground v.1.15,2013-07-22 11:40:00,
2013-07-22 07:45:00,66.4,64.6,29.82,North,32767,-999.0,0.0,94,0.00,,,0.24,Wunderground v.1.15,2013-07-22 11:45:00,
2013-07-22 07:50:00,66.5,64.7,29.82,N/A,-737280,0.0,-999.0,94,0.00,,,0.24,Wunderground v.1.15,2013-07-22 11:50:00,
2013-07-22 07:55:00,66.6,64.8,29.82,North,32767,-999.0,0.0,94,0.00,,,0.24,Wunderground v.1.15,2013-07-22 11:55:00,
2013-07-22 08:00:00,66.7,64.9,29.82,N/A,-737280,0.0,-999.0,94,0.00,,,0.24,Wunderground v.1.15,2013-07-22 12:00:00,
2013-07-22 08:05:00,66.8,65.0,29.82,North,32767,-999.0,0.0,94,0.00,,,0.24,Wunderground v.1.15,2013-07-22 12:05:00,
2013-07-22 08:10:00,66.9,65.1,29.82,North,32767,-999.0,0.0,94,0.00,,,0.24,Wunderground v.1.15,2013-07-22 12:10:00,
2013-07-22 08:15:00,67.1,65.0,29.82,North,32767,-999.0,0.0,93,0.00,,,0.24,Wunderground v.1.15,2013-07-22 12:15:00,
2013-07-22 08:20:00,67.2,65.1,29.82,N/A,-737280,0.0,-999.0,93,0.00,,,0.24,Wunderground v.1.15,2013-07-22 12:20:00,
2013-07-22 08:25:00,67.3,65.2,29.82,North,32767,-999.0,0.0,93,0.00,,,0.24,Wunderground v.1.15,2013-07-22 12:25:00,
2013-07-22 08:30:00,67.4,65.3,29.82,N/A,-737280,0.0,-999.0,93,0.00,,,0.24,Wunderground v.1.15,2013-07-22 12:30:00,
2013-07-22 08:35:00,67.5,65.4,29.82,North,32767,-999.0,0.0,93,0.00,,,0.24,Wunderground v.1.15,2013-07-22 12:35:00,
2013-07-22 08:40:00,67.7,65.6,29.82,N/A,-737280,0.0,-999.0,93,0.00,,,0.24,Wunderground v.1.15,2013-07-22 12:40:00,
2013-07-22 08:45:00,68.2,65.8,29.82,North,32767,-999.0,0.0,92,0.00,,,0.24,Wunderground v.1.15,2013-07-22 12:45:00,
2013-07-22 08:50:00,68.4,66.0,29.82,N/A,-737280,0.0,-999.0,92,0.00,,,0.24,Wunderground v.1.15,2013-07-22 12:50:00,
2013-07-22 08:55:00,68.7,66.3,29.82,North,32767,-999.0,0.0,92,0.00,,,0.24,Wunderground v.1.15,2013-07-22 12:55:00,
2013-07-22 09:00:00,68.8,66.1,29.82,North,32767,-999.0,0.0,91,0.00,,,0.24,Wunderground v.1.15,2013-07-22 13:00:00,
2013-07-22 09:05:00,69.2,66.5,29.82,North,32767,-999.0,0.0,91,0.00,,,0.24,Wunderground v.1.15,2013-07-22 13:05:00,
2013-07-22 09:10:00,69.5,66.8,29.82,N/A,-737280,0.0,-999.0,91,0.00,,,0.24,Wunderground v.1.15,2013-07-22 13:10:00,
2013-07-22 09:15:00,69.9,66.8,29.82,North,32767,-999.0,0.0,90,0.00,,,0.24,Wunderground v.1.15,2013-07-22 13:15:00,
2013-07-22 09:20:00,70.1,66.7,29.82,N/A,-737280,0.0,-999.0,89,0.00,,,0.24,Wunderground v.1.15,2013-07-22 13:20:00,
2013-07-22 09:25:00,70.4,67.0,29.82,North,32767,-999.0,0.0,89,0.00,,,0.24,Wunderground v.1.15,2013-07-22 13:25:00,
2013-07-22 09:30:00,70.6,67.2,29.83,N/A,-737280,0.0,-999.0,89,0.00,,,0.24,Wunderground v.1.15,2013-07-22 13:30:00,
2013-07-22 09:35:00,70.9,67.5,29.83,North,32767,-999.0,0.0,89,0.00,,,0.24,Wunderground v.1.15,2013-07-22 13:35:00,
2013-07-22 09:40:00,70.9,67.2,29.83,North,32767,-999.0,0.0,88,0.00,,,0.24,Wunderground v.1.15,2013-07-22 13:40:00,
2013-07-22 09:45:00,71.0,67.3,29.82,N/A,-737280,0.0,-999.0,88,0.00,,,0.24,Wunderground v.1.15,2013-07-22 13:45:00,
2013-07-22 09:50:00,71.1,67.4,29.82,North,32767,-999.0,0.0,88,0.00,,,0.24,Wunderground v.1.15,2013-07-22 13:50:00,
2013-07-22 09:55:00,71.3,67.2,29.82,N/A,-737280,0.0,-999.0,87,0.00,,,0.24,Wunderground v.1.15,2013-07-22 13:55:00,
2013-07-22 10:00:00,71.5,67.8,29.83,North,32767,-999.0,0.0,88,0.00,,,0.24,Wunderground v.1.15,2013-07-22 14:00:00,
2013-07-22 10:05:00,71.9,68.2,29.83,North,32767,-999.0,0.0,88,0.00,,,0.24,Wunderground v.1.15,2013-07-22 14:05:00,
2013-07-22 10:10:00,72.1,68.0,29.83,N/A,-737280,0.0,-999.0,87,0.00,,,0.24,Wunderground v.1.15,2013-07-22 14:10:00,
2013-07-22 10:15:00,72.1,67.7,29.83,North,32767,-999.0,0.0,86,0.00,,,0.24,Wunderground v.1.15,2013-07-22 14:15:00,
2013-07-22 10:20:00,72.2,67.8,29.82,N/A,-737280,0.0,-999.0,86,0.00,,,0.24,Wunderground v.1.15,2013-07-22 14:20:00,
2013-07-22 10:25:00,72.7,68.3,29.82,North,32767,-999.0,0.0,86,0.00,,,0.24,Wunderground v.1.15,2013-07-22 14:25:00,
2013-07-22 10:30:00,73.3,68.5,29.82,North,32767,-999.0,0.0,85,0.00,,,0.24,Wunderground v.1.15,2013-07-22 14:30:00,
2013-07-22 10:35:00,73.6,68.5,29.82,N/A,-737280,0.0,-999.0,84,0.00,,,0.24,Wunderground v.1.15,2013-07-22 14:35:00,
2013-07-22 10:40:00,73.7,68.2,29.82,North,32767,-999.0,0.0,83,0.00,,,0.24,Wunderground v.1.15,2013-07-22 14:40:00,
2013-07-22 10:45:00,73.4,67.9,29.82,North,32767,-999.0,0.0,83,0.00,,,0.24,Wunderground v.1.15,2013-07-22 14:45:00,
2013-07-22 10:50:00,73.3,68.5,29.83,N/A,-737280,0.0,-999.0,85,0.00,,,0.24,Wunderground v.1.15,2013-07-22 14:50:00,
2013-07-22 10:55:00,73.7,68.2,29.83,North,32767,-999.0,0.0,83,0.00,,,0.24,Wunderground v.1.15,2013-07-22 14:55:00,
2013-07-22 11:00:00,73.8,68.7,29.83,North,32767,-999.0,0.0,84,0.00,,,0.24,Wunderground v.1.15,2013-07-22 15:00:00,
2013-07-22 11:05:00,73.8,68.7,29.82,N/A,-737280,0.0,-999.0,84,0.00,,,0.24,Wunderground v.1.15,2013-07-22 15:05:00,
2013-07-22 11:10:00,74.2,68.7,29.83,North,32767,-999.0,0.0,83,0.00,,,0.24,Wunderground v.1.15,2013-07-22 15:10:00,
2013-07-22 11:15:00,73.9,68.8,29.82,N/A,-737280,0.0,-999.0,84,0.00,,,0.24,Wunderground v.1.15,2013-07-22 15:15:00,
2013-07-22 11:20:00,74.2,69.1,29.82,North,32767,-999.0,0.0,84,0.00,,,0.24,Wunderground v.1.15,2013-07-22 15:20:00,
2013-07-22 11:25:00,74.8,69.3,29.82,N/A,-737280,0.0,-999.0,83,0.00,,,0.24,Wunderground v.1.15,2013-07-22 15:25:00,
2013-07-22 11:30:00,75.8,69.9,29.82,North,32767,-999.0,0.0,82,0.00,,,0.24,Wunderground v.1.15,2013-07-22 15:30:00,
2013-07-22 11:35:00,76.4,70.9,29.82,North,32767,-999.0,0.0,83,0.00,,,0.24,Wunderground v.1.15,2013-07-22 15:35:00,
2013-07-22 11:40:00,76.3,69.7,29.82,N/A,-737280,0.0,-999.0,80,0.00,,,0.24,Wunderground v.1.15,2013-07-22 15:40:00,
2013-07-22 11:45:00,76.5,69.9,29.82,North,32767,-999.0,0.0,80,0.00,,,0.24,Wunderground v.1.15,2013-07-22 15:45:00,
2013-07-22 11:50:00,76.6,69.2,29.82,N/A,-737280,0.0,-999.0,78,0.00,,,0.24,Wunderground v.1.15,2013-07-22 15:50:00,
2013-07-22 11:55:00,76.7,69.3,29.82,North,32767,-999.0,0.0,78,0.00,,,0.24,Wunderground v.1.15,2013-07-22 15:55:00,
2013-07-22 12:00:00,77.0,68.9,29.82,N/A,-737280,0.0,-999.0,76,0.00,,,0.24,Wunderground v.1.15,2013-07-22 16:00:00,
2013-07-22 12:05:00,77.7,70.7,29.82,North,32767,-999.0,0.0,79,0.00,,,0.24,Wunderground v.1.15,2013-07-22 16:05:00,
2013-07-22 12:10:00,77.9,70.1,29.82,N/A,-737280,0.0,-999.0,77,0.00,,,0.24,Wunderground v.1.15,2013-07-22 16:10:00,
2013-07-22 12:15:00,78.0,70.6,29.82,North,32767,-999.0,0.0,78,0.00,,,0.24,Wunderground v.1.15,2013-07-22 16:15:00,
2013-07-22 12:20:00,78.2,70.4,29.82,North,32767,-999.0,0.0,77,0.00,,,0.24,Wunderground v.1.15,2013-07-22 16:20:00,
2013-07-22 12:25:00,78.4,69.8,29.82,N/A,-737280,0.0,-999.0,75,0.00,,,0.24,Wunderground v.1.15,2013-07-22 16:25:00,
2013-07-22 12:30:00,78.5,69.5,29.82,North,32767,-999.0,0.0,74,0.00,,,0.24,Wunderground v.1.15,2013-07-22 16:30:00,
2013-07-22 12:35:00,78.4,70.2,29.82,North,32767,-999.0,0.0,76,0.00,,,0.24,Wunderground v.1.15,2013-07-22 16:35:00,
2013-07-22 12:40:00,78.5,69.9,29.81,SSW,203,6.0,-999.0,75,0.00,,,0.24,Wunderground v.1.15,2013-07-22 16:40:00,
2013-07-22 12:45:00,77.8,70.0,29.82,South,190,7.0,7.0,77,0.00,,,0.24,Wunderground v.1.15,2013-07-22 16:45:00,
2013-07-22 12:50:00,77.6,69.4,29.82,SSW,203,5.0,-999.0,76,0.00,,,0.24,Wunderground v.1.15,2013-07-22 16:50:00,
2013-07-22 12:55:00,77.8,69.6,29.81,SW,217,6.0,8.0,76,0.00,,,0.24,Wunderground v.1.15,2013-07-22 16:55:00,
2013-07-22 13:00:00,78.4,70.6,29.81,SW,217,6.0,6.0,77,0.00,,,0.24,Wunderground v.1.15,2013-07-22 17:00:00,
2013-07-22 13:05:00,78.6,69.6,29.81,SSW,203,4.0,-999.0,74,0.00,,,0.24,Wunderground v.1.15,2013-07-22 17:05:00,
2013-07-22 13:10:00,79.0,70.0,29.81,SSW,201,5.0,6.0,74,0.00,,,0.24,Wunderground v.1.15,2013-07-22 17:10:00,
2013-07-22 13:15:00,79.4,70.0,29.81,SSE,150,5.0,6.0,73,0.00,,,0.24,Wunderground v.1.15,2013-07-22 17:15:00,
2013-07-22 13:20:00,79.8,69.6,29.81,SSW,203,9.0,-999.0,71,0.00,,,0.24,Wunderground v.1.15,2013-07-22 17:20:00,
2013-07-22 13:25:00,79.8,69.6,29.81,South,181,7.0,9.0,71,0.00,,,0.24,Wunderground v.1.15,2013-07-22 17:25:00,
2013-07-22 13:30:00,79.4,69.6,29.80,South,180,5.0,-999.0,72,0.00,,,0.24,Wunderground v.1.15,2013-07-22 17:30:00,
2013-07-22 13:35:00,80.3,69.6,29.80,South,173,6.0,13.0,70,0.00,,,0.24,Wunderground v.1.15,2013-07-22 17:35:00,
2013-07-22 13:40:00,80.8,70.1,29.81,SSW,200,8.0,8.0,70,0.00,,,0.24,Wunderground v.1.15,2013-07-22 17:40:00,
2013-07-22 13:45:00,80.5,69.4,29.81,SSW,203,7.0,-999.0,69,0.00,,,0.24,Wunderground v.1.15,2013-07-22 17:45:00,
2013-07-22 13:50:00,80.0,69.3,29.81,SW,217,6.0,6.0,70,0.00,,,0.24,Wunderground v.1.15,2013-07-22 17:50:00,
2013-07-22 13:55:00,81.0,70.3,29.81,SSW,198,5.0,13.0,70,0.00,,,0.24,Wunderground v.1.15,2013-07-22 17:55:00,
2013-07-22 14:00:00,81.3,69.3,29.81,SSW,203,9.0,-999.0,67,0.00,,,0.24,Wunderground v.1.15,2013-07-22 18:00:00,
2013-07-22 14:05:00,81.6,70.0,29.80,SSW,213,9.0,9.0,68,0.00,,,0.24,Wunderground v.1.15,2013-07-22 18:05:00,
2013-07-22 14:10:00,82.1,68.7,29.81,SSW,203,10.0,-999.0,64,0.00,,,0.24,Wunderground v.1.15,2013-07-22 18:10:00,
2013-07-22 14:15:00,81.5,69.9,29.80,SSW,194,9.0,10.0,68,0.00,,,0.24,Wunderground v.1.15,2013-07-22 18:15:00,
2013-07-22 14:20:00,80.8,69.7,29.80,SSE,168,7.0,7.0,69,0.00,,,0.24,Wunderground v.1.15,2013-07-22 18:20:00,
2013-07-22 14:25:00,80.7,68.7,29.80,SSW,203,4.0,-999.0,67,0.00,,,0.24,Wunderground v.1.15,2013-07-22 18:25:00,
2013-07-22 14:30:00,80.0,69.3,29.80,SSW,208,5.0,7.0,70,0.00,,,0.24,Wunderground v.1.15,2013-07-22 18:30:00,
2013-07-22 14:35:00,80.5,69.0,29.80,SW,225,6.0,-999.0,68,0.00,,,0.24,Wunderground v.1.15,2013-07-22 18:35:00,
2013-07-22 14:40:00,81.9,69.9,29.80,South,188,7.0,8.0,67,0.00,,,0.24,Wunderground v.1.15,2013-07-22 18:40:00,
2013-07-22 14:45:00,81.3,69.3,29.80,SSW,203,7.0,-999.0,67,0.00,,,0.24,Wunderground v.1.15,2013-07-22 18:45:00,
2013-07-22 14:50:00,80.6,69.1,29.80,SW,219,8.0,10.0,68,0.00,,,0.24,Wunderground v.1.15,2013-07-22 18:50:00,
2013-07-22 14:55:00,81.1,70.0,29.79,SSW,211,8.0,10.0,69,0.00,,,0.24,Wunderground v.1.15,2013-07-22 18:55:00,
2013-07-22 15:00:00,82.0,70.0,29.79,SW,225,7.0,-999.0,67,0.00,,,0.24,Wunderground v.1.15,2013-07-22 19:00:00,
2013-07-22 15:05:00,82.3,69.4,29.79,South,188,7.0,12.0,65,0.00,,,0.24,Wunderground v.1.15,2013-07-22 19:05:00,
2013-07-22 15:10:00,81.8,70.6,29.79,South,180,6.0,-999.0,69,0.00,,,0.24,Wunderground v.1.15,2013-07-22 19:10:00,
2013-07-22 15:15:00,82.4,69.9,29.78,South,190,7.0,7.0,66,0.00,,,0.24,Wunderground v.1.15,2013-07-22 19:15:00,
2013-07-22 15:20:00,82.8,70.3,29.78,South,180,5.0,-999.0,66,0.00,,,0.24,Wunderground v.1.15,2013-07-22 19:20:00,
2013-07-22 15:25:00,82.8,69.8,29.78,South,172,6.0,7.0,65,0.00,,,0.24,Wunderground v.1.15,2013-07-22 19:25:00,
2013-07-22 15:30:00,82.4,70.3,29.78,South,180,5.0,-999.0,67,0.00,,,0.24,Wunderground v.1.15,2013-07-22 19:30:00,
2013-07-22 15:35:00,82.7,70.2,29.78,ESE,117,4.0,11.0,66,0.00,,,0.24,Wunderground v.1.15,2013-07-22 19:35:00,
2013-07-22 15:40:00,83.0,70.0,29.78,South,188,5.0,6.0,65,0.00,,,0.24,Wunderground v.1.15,2013-07-22 19:40:00,
2013-07-22 15:45:00,83.5,70.0,29.77,SSW,203,8.0,-999.0,64,0.00,,,0.24,Wunderground v.1.15,2013-07-22 19:45:00,
2013-07-22 15:50:00,82.2,69.3,29.77,South,174,8.0,9.0,65,0.00,,,0.24,Wunderground v.1.15,2013-07-22 19:50:00,
2013-07-22 15:55:00,81.6,69.1,29.77,South,186,6.0,9.0,66,0.00,,,0.24,Wunderground v.1.15,2013-07-22 19:55:00,
2013-07-22 16:00:00,81.1,69.5,29.77,SSW,203,6.0,-999.0,68,0.00,,,0.24,Wunderground v.1.15,2013-07-22 20:00:00,
2013-07-22 16:05:00,81.6,70.9,29.77,SSW,194,6.0,7.0,70,0.00,,,0.24,Wunderground v.1.15,2013-07-22 20:05:00,
2013-07-22 16:10:00,82.1,69.2,29.77,South,180,5.0,-999.0,65,0.00,,,0.24,Wunderground v.1.15,2013-07-22 20:10:00,
2013-07-22 16:15:00,82.9,69.9,29.77,SSW,192,5.0,11.0,65,0.00,,,0.24,Wunderground v.1.15,2013-07-22 20:15:00,
2013-07-22 16:20:00,82.9,68.5,29.77,SSW,199,7.0,7.0,62,0.00,,,0.24,Wunderground v.1.15,2013-07-22 20:20:00,
2013-07-22 16:25:00,83.4,69.9,29.76,South,172,8.0,8.0,64,0.00,,,0.24,Wunderground v.1.15,2013-07-22 20:25:00,
2013-07-22 16:30:00,83.8,69.4,29.76,South,186,5.0,5.0,62,0.00,,,0.24,Wunderground v.1.15,2013-07-22 20:30:00,
2013-07-22 16:35:00,83.6,68.2,29.76,South,171,4.0,5.0,60,0.00,,,0.24,Wunderground v.1.15,2013-07-22 20:35:00,
2013-07-22 16:40:00,83.8,69.9,29.75,SSW,202,6.0,9.0,63,0.00,,,0.24,Wunderground v.1.15,2013-07-22 20:40:00,
2013-07-22 16:45:00,83.6,68.7,29.75,SE,140,6.0,9.0,61,0.00,,,0.24,Wunderground v.1.15,2013-07-22 20:45:00,
2013-07-22 16:50:00,83.9,70.0,29.75,SSW,203,9.0,-999.0,63,0.00,,,0.24,Wunderground v.1.15,2013-07-22 20:50:00,
2013-07-22 16:55:00,83.6,68.7,29.75,SSW,209,10.0,11.0,61,0.00,,,0.24,Wunderground v.1.15,2013-07-22 20:55:00,
2013-07-22 17:00:00,83.4,69.9,29.75,SSW,203,10.0,-999.0,64,0.00,,,0.24,Wunderground v.1.15,2013-07-22 21:00:00,
2013-07-22 17:05:00,82.9,68.1,29.75,South,169,10.0,11.0,61,0.00,,,0.24,Wunderground v.1.15,2013-07-22 21:05:00,
2013-07-22 17:10:00,83.4,68.5,29.75,South,180,9.0,-999.0,61,0.00,,,0.24,Wunderground v.1.15,2013-07-22 21:10:00,
2013-07-22 17:15:00,83.5,68.6,29.75,SSE,167,7.0,10.0,61,0.00,,,0.24,Wunderground v.1.15,2013-07-22 21:15:00,
2013-07-22 17:20:00,83.5,69.1,29.75,SSW,203,9.0,-999.0,62,0.00,,,0.24,Wunderground v.1.15,2013-07-22 21:20:00,
2013-07-22 17:25:00,83.6,67.8,29.74,SSW,197,8.0,9.0,59,0.00,,,0.24,Wunderground v.1.15,2013-07-22 21:25:00,
2013-07-22 17:30:00,83.7,68.8,29.74,SSW,203,9.0,-999.0,61,0.00,,,0.24,Wunderground v.1.15,2013-07-22 21:30:00,
2013-07-22 17:35:00,83.3,68.0,29.74,South,188,10.0,10.0,60,0.00,,,0.24,Wunderground v.1.15,2013-07-22 21:35:00,
2013-07-22 17:40:00,82.6,69.6,29.74,South,180,7.0,-999.0,65,0.00,,,0.24,Wunderground v.1.15,2013-07-22 21:40:00,
2013-07-22 17:45:00,83.0,69.6,29.74,South,188,8.0,10.0,64,0.00,,,0.24,Wunderground v.1.15,2013-07-22 21:45:00,
2013-07-22 17:50:00,82.0,69.1,29.74,SSW,201,9.0,12.0,65,0.00,,,0.24,Wunderground v.1.15,2013-07-22 21:50:00,
2013-07-22 17:55:00,81.5,69.5,29.74,SSW,192,10.0,12.0,67,0.00,,,0.24,Wunderground v.1.15,2013-07-22 21:55:00,
2013-07-22 18:00:00,82.0,68.6,29.74,South,180,8.0,-999.0,64,0.00,,,0.24,Wunderground v.1.15,2013-07-22 22:00:00,
2013-07-22 18:05:00,82.9,70.4,29.74,SSW,192,9.0,11.0,66,0.00,,,0.24,Wunderground v.1.15,2013-07-22 22:05:00,
2013-07-22 18:10:00,83.0,70.0,29.74,SSW,203,10.0,-999.0,65,0.00,,,0.24,Wunderground v.1.15,2013-07-22 22:10:00,
2013-07-22 18:15:00,83.0,69.1,29.73,SSE,159,10.0,10.0,63,0.00,,,0.24,Wunderground v.1.15,2013-07-22 22:15:00,
2013-07-22 18:20:00,82.7,69.7,29.73,South,180,10.0,-999.0,65,0.00,,,0.24,Wunderground v.1.15,2013-07-22 22:20:00,
2013-07-22 18:25:00,82.5,70.0,29.73,South,188,9.0,13.0,66,0.00,,,0.24,Wunderground v.1.15,2013-07-22 22:25:00,
2013-07-22 18:30:00,82.6,70.1,29.73,SSW,203,8.0,-999.0,66,0.00,,,0.24,Wunderground v.1.15,2013-07-22 22:30:00,
2013-07-22 18:35:00,82.7,69.3,29.73,South,178,7.0,8.0,64,0.00,,,0.24,Wunderground v.1.15,2013-07-22 22:35:00,
2013-07-22 18:40:00,82.5,69.1,29.73,SSW,203,9.0,-999.0,64,0.00,,,0.24,Wunderground v.1.15,2013-07-22 22:40:00,
2013-07-22 18:45:00,82.3,69.4,29.72,South,179,8.0,10.0,65,0.00,,,0.24,Wunderground v.1.15,2013-07-22 22:45:00,
2013-07-22 18:50:00,82.5,69.5,29.72,South,180,6.0,-999.0,65,0.00,,,0.24,Wunderground v.1.15,2013-07-22 22:50:00,
2013-07-22 18:55:00,82.3,68.9,29.71,SSW,194,8.0,14.0,64,0.00,,,0.24,Wunderground v.1.15,2013-07-22 22:55:00,
2013-07-22 19:00:00,82.1,68.7,29.71,South,180,12.0,-999.0,64,0.00,,,0.24,Wunderground v.1.15,2013-07-22 23:00:00,
2013-07-22 19:05:00,81.8,69.8,29.71,SSW,200,11.0,11.0,67,0.00,,,0.24,Wunderground v.1.15,2013-07-22 23:05:00,
2013-07-22 19:10:00,81.9,69.0,29.71,SSW,203,9.0,-999.0,65,0.00,,,0.24,Wunderground v.1.15,2013-07-22 23:10:00,
2013-07-22 19:15:00,81.6,68.7,29.71,South,191,9.0,12.0,65,0.00,,,0.24,Wunderground v.1.15,2013-07-22 23:15:00,
2013-07-22 19:20:00,81.4,69.8,29.71,SSW,203,10.0,-999.0,68,0.00,,,0.24,Wunderground v.1.15,2013-07-22 23:20:00,
2013-07-22 19:25:00,81.0,69.4,29.71,SSW,198,11.0,11.0,68,0.00,,,0.24,Wunderground v.1.15,2013-07-22 23:25:00,
2013-07-22 19:30:00,80.7,69.6,29.71,South,188,11.0,15.0,69,0.00,,,0.24,Wunderground v.1.15,2013-07-22 23:30:00,
2013-07-22 19:35:00,80.6,69.1,29.71,South,188,11.0,15.0,68,0.00,,,0.24,Wunderground v.1.15,2013-07-22 23:35:00,
2013-07-22 19:40:00,80.6,69.1,29.71,SSW,203,10.0,-999.0,68,0.00,,,0.24,Wunderground v.1.15,2013-07-22 23:40:00,
2013-07-22 19:45:00,80.5,69.0,29.71,South,184,10.0,12.0,68,0.00,,,0.24,Wunderground v.1.15,2013-07-22 23:45:00,
2013-07-22 19:50:00,80.3,69.2,29.71,SSW,203,9.0,-999.0,69,0.00,,,0.24,Wunderground v.1.15,2013-07-22 23:50:00,
2013-07-22 19:55:00,80.0,68.9,29.71,South,190,10.0,12.0,69,0.00,,,0.24,Wunderground v.1.15,2013-07-22 23:55:00,
2013-07-22 20:00:00,79.8,69.1,29.71,South,184,10.0,10.0,70,0.00,,,0.24,Wunderground v.1.15,2013-07-23 00:00:00,
2013-07-22 20:05:00,79.7,69.5,29.71,SSW,203,9.0,-999.0,71,0.00,,,0.24,Wunderground v.1.15,2013-07-23 00:05:00,
2013-07-22 20:10:00,79.4,69.2,29.71,SSE,166,9.0,10.0,71,0.00,,,0.24,Wunderground v.1.15,2013-07-23 00:10:00,
2013-07-22 20:15:00,79.2,69.0,29.72,SSW,203,8.0,-999.0,71,0.00,,,0.24,Wunderground v.1.15,2013-07-23 00:15:00,
2013-07-22 20:20:00,78.8,69.0,29.72,SSW,200,7.0,7.0,72,0.00,,,0.24,Wunderground v.1.15,2013-07-23 00:20:00,
2013-07-22 20:25:00,78.7,69.7,29.72,SSW,203,5.0,-999.0,74,0.00,,,0.24,Wunderground v.1.15,2013-07-23 00:25:00,
2013-07-22 20:30:00,78.3,70.1,29.72,SSW,208,6.0,6.0,76,0.00,,,0.24,Wunderground v.1.15,2013-07-23 00:30:00,
2013-07-22 20:35:00,78.0,70.2,29.72,SSW,203,5.0,-999.0,77,0.00,,,0.24,Wunderground v.1.15,2013-07-23 00:35:00,
2013-07-22 20:40:00,77.6,70.2,29.72,SSW,213,5.0,5.0,78,0.00,,,0.24,Wunderground v.1.15,2013-07-23 00:40:00,
2013-07-22 20:45:00,77.3,70.3,29.72,SSW,213,5.0,5.0,79,0.00,,,0.24,Wunderground v.1.15,2013-07-23 00:45:00,
2013-07-22 20:50:00,77.0,70.4,29.73,N/A,-737280,0.0,-999.0,80,0.00,,,0.24,Wunderground v.1.15,2013-07-23 00:50:00,
2013-07-22 20:55:00,76.7,70.1,29.73,SSW,213,5.0,5.0,80,0.00,,,0.24,Wunderground v.1.15,2013-07-23 00:55:00,
2013-07-22 21:00:00,76.6,70.0,29.73,N/A,-737280,0.0,-999.0,80,0.00,,,0.24,Wunderground v.1.15,2013-07-23 01:00:00,
2013-07-22 21:05:00,76.5,69.9,29.73,North,32767,-999.0,0.0,80,0.00,,,0.24,Wunderground v.1.15,2013-07-23 01:05:00,
2013-07-22 21:10:00,76.4,70.1,29.72,N/A,-737280,0.0,-999.0,81,0.00,,,0.24,Wunderground v.1.15,2013-07-23 01:10:00,
2013-07-22 21:15:00,76.1,69.8,29.72,North,32767,-999.0,0.0,81,0.00,,,0.24,Wunderground v.1.15,2013-07-23 01:15:00,
2013-07-22 21:20:00,75.6,69.7,29.72,North,32767,-999.0,0.0,82,0.00,,,0.24,Wunderground v.1.15,2013-07-23 01:20:00,
2013-07-22 21:25:00,75.3,69.8,29.71,N/A,-737280,0.0,-999.0,83,0.00,,,0.24,Wunderground v.1.15,2013-07-23 01:25:00,
2013-07-22 21:30:00,74.8,69.6,29.71,North,32767,-999.0,0.0,84,0.00,,,0.24,Wunderground v.1.15,2013-07-23 01:30:00,
2013-07-22 21:35:00,74.6,69.4,29.70,North,32767,-999.0,0.0,84,0.00,,,0.24,Wunderground v.1.15,2013-07-23 01:35:00,
2013-07-22 21:40:00,74.4,69.6,29.71,N/A,-737280,0.0,-999.0,85,0.00,,,0.24,Wunderground v.1.15,2013-07-23 01:40:00,
2013-07-22 21:45:00,74.2,69.4,29.71,North,32767,-999.0,0.0,85,0.00,,,0.24,Wunderground v.1.15,2013-07-23 01:45:00,
2013-07-22 21:50:00,73.9,69.4,29.70,N/A,-737280,0.0,-999.0,86,0.00,,,0.24,Wunderground v.1.15,2013-07-23 01:50:00,
2013-07-22 21:55:00,73.8,69.3,29.71,North,32767,-999.0,0.0,86,0.00,,,0.24,Wunderground v.1.15,2013-07-23 01:55:00,
2013-07-22 22:00:00,73.6,69.2,29.71,N/A,-737280,0.0,-999.0,86,0.00,,,0.24,Wunderground v.1.15,2013-07-23 02:00:00,
2013-07-22 22:05:00,73.5,69.1,29.71,North,32767,-999.0,0.0,86,0.00,,,0.24,Wunderground v.1.15,2013-07-23 02:05:00,
2013-07-22 22:10:00,73.6,69.2,29.71,N/A,-737280,0.0,-999.0,86,0.00,,,0.24,Wunderground v.1.15,2013-07-23 02:10:00,
2013-07-22 22:15:00,73.4,69.0,29.71,North,32767,-999.0,0.0,86,0.00,,,0.24,Wunderground v.1.15,2013-07-23 02:15:00,
2013-07-22 22:20:00,73.2,69.1,29.71,N/A,-737280,0.0,-999.0,87,0.00,,,0.24,Wunderground v.1.15,2013-07-23 02:20:00,
2013-07-22 22:25:00,72.8,69.0,29.71,North,32767,-999.0,0.0,88,0.00,,,0.24,Wunderground v.1.15,2013-07-23 02:25:00,
2013-07-22 22:30:00,73.0,69.2,29.71,North,32767,-999.0,0.0,88,0.00,,,0.24,Wunderground v.1.15,2013-07-23 02:30:00,
2013-07-22 22:35:00,72.9,69.1,29.72,N/A,-737280,0.0,-999.0,88,0.00,,,0.24,Wunderground v.1.15,2013-07-23 02:35:00,
2013-07-22 22:40:00,72.8,69.4,29.72,North,32767,-999.0,0.0,89,0.00,,,0.24,Wunderground v.1.15,2013-07-23 02:40:00,
2013-07-22 22:45:00,72.9,69.5,29.73,North,32767,-999.0,0.0,89,0.00,,,0.24,Wunderground v.1.15,2013-07-23 02:45:00,
2013-07-22 22:50:00,72.9,69.1,29.73,N/A,-737280,0.0,-999.0,88,0.00,,,0.24,Wunderground v.1.15,2013-07-23 02:50:00,
2013-07-22 22:55:00,72.9,69.1,29.73,North,32767,-999.0,0.0,88,0.00,,,0.24,Wunderground v.1.15,2013-07-23 02:55:00,
2013-07-22 23:00:00,72.9,69.1,29.73,N/A,-737280,0.0,-999.0,88,0.00,,,0.24,Wunderground v.1.15,2013-07-23 03:00:00,
2013-07-22 23:05:00,72.9,69.1,29.73,North,32767,-999.0,0.0,88,0.00,,,0.24,Wunderground v.1.15,2013-07-23 03:05:00,
2013-07-22 23:10:00,73.0,69.2,29.73,North,32767,-999.0,0.0,88,0.00,,,0.24,Wunderground v.1.15,2013-07-23 03:10:00,
2013-07-22 23:15:00,73.0,69.2,29.73,North,32767,-999.0,0.0,88,0.00,,,0.24,Wunderground v.1.15,2013-07-23 03:15:00,
2013-07-22 23:20:00,73.1,69.3,29.73,N/A,-737280,0.0,-999.0,88,0.00,,,0.24,Wunderground v.1.15,2013-07-23 03:20:00,
2013-07-22 23:25:00,73.3,69.2,29.73,North,32767,-999.0,0.0,87,0.00,,,0.24,Wunderground v.1.15,2013-07-23 03:25:00,
2013-07-22 23:30:00,73.2,69.1,29.72,N/A,-737280,0.0,-999.0,87,0.00,,,0.24,Wunderground v.1.15,2013-07-23 03:30:00,
2013-07-22 23:35:00,73.0,68.9,29.73,North,32767,-999.0,0.0,87,0.00,,,0.24,Wunderground v.1.15,2013-07-23 03:35:00,
2013-07-22 23:40:00,72.8,69.0,29.72,North,32767,-999.0,0.0,88,0.00,,,0.24,Wunderground v.1.15,2013-07-23 03:40:00,
2013-07-22 23:45:00,72.6,68.8,29.72,N/A,-737280,0.0,-999.0,88,0.00,,,0.24,Wunderground v.1.15,2013-07-23 03:45:00,
2013-07-22 23:50:00,72.2,68.4,29.71,North,32767,-999.0,0.0,88,0.00,,,0.24,Wunderground v.1.15,2013-07-23 03:50:00,
2013-07-22 23:55:00,72.1,68.3,29.72,North,32767,-999.0,0.0,88,0.00,,,0.24,Wunderground v.1.15,2013-07-23 03:55:00,